createdAt,value
2017-09-06T00:01:55.283Z,11.67
2017-09-06T00:04:21.758Z,9.67
2017-09-06T00:06:48.221Z,9.93
2017-09-06T00:09:14.692Z,11.77
2017-09-06T00:11:41.147Z,9.27
2017-09-06T00:14:07.608Z,10.20
2017-09-06T00:16:34.072Z,9.37
2017-09-06T00:19:00.617Z,8.47
2017-09-06T00:21:27.087Z,9.87
2017-09-06T00:23:53.574Z,8.43
2017-09-06T00:26:20.061Z,12.20
2017-09-06T00:28:47.253Z,13.00
2017-09-06T00:31:13.712Z,9.40
2017-09-06T00:33:40.180Z,11.23
2017-09-06T00:36:06.658Z,10.23
2017-09-06T00:38:33.145Z,15.80
2017-09-06T00:40:59.614Z,11.13
2017-09-06T00:43:26.072Z,9.70
2017-09-06T00:45:52.547Z,12.87
2017-09-06T00:48:19.071Z,12.13
2017-09-06T00:50:45.586Z,13.30
2017-09-06T00:53:12.082Z,10.77
2017-09-06T00:55:38.573Z,10.70
2017-09-06T00:58:05.107Z,10.73
2017-09-06T01:00:31.637Z,10.33
2017-09-06T01:02:58.128Z,12.53
2017-09-06T01:05:24.604Z,13.77
2017-09-06T01:07:51.086Z,17.87
2017-09-06T01:10:17.571Z,14.57
2017-09-06T01:12:44.044Z,12.50
2017-09-06T01:15:10.568Z,10.70
2017-09-06T01:17:37.057Z,11.73
2017-09-06T01:20:03.595Z,10.50
2017-09-06T01:22:30.110Z,10.73
2017-09-06T01:24:56.596Z,13.03
2017-09-06T01:27:23.080Z,13.10
2017-09-06T01:29:49.560Z,16.60
2017-09-06T01:32:16.026Z,13.87
2017-09-06T01:34:42.514Z,14.67
2017-09-06T01:37:08.983Z,14.03
2017-09-06T01:39:35.461Z,9.50
2017-09-06T01:42:01.930Z,13.13
2017-09-06T01:44:28.412Z,11.27
2017-09-06T01:46:54.894Z,11.03
2017-09-06T01:49:21.389Z,16.30
2017-09-06T01:51:47.859Z,10.43
2017-09-06T01:54:14.332Z,10.17
2017-09-06T01:56:40.845Z,14.57
2017-09-06T01:59:07.339Z,11.03
2017-09-06T02:01:33.821Z,12.17
2017-09-06T02:04:00.325Z,15.77
2017-09-06T02:06:26.780Z,11.97
2017-09-06T02:08:53.293Z,12.60
2017-09-06T02:11:19.797Z,11.73
2017-09-06T02:13:46.268Z,13.43
2017-09-06T02:16:12.741Z,13.73
2017-09-06T02:18:39.353Z,14.27
2017-09-06T02:21:05.842Z,13.60
2017-09-06T02:23:32.296Z,12.40
2017-09-06T02:25:58.756Z,10.53
2017-09-06T02:28:25.203Z,10.97
2017-09-06T02:30:51.664Z,12.67
2017-09-06T02:33:18.123Z,12.60
2017-09-06T02:35:44.563Z,10.33
2017-09-06T02:38:11.031Z,14.30
2017-09-06T02:40:37.530Z,11.70
2017-09-06T02:43:04.023Z,16.40
2017-09-06T02:45:30.517Z,17.40
2017-09-06T02:47:56.965Z,14.87
2017-09-06T02:50:23.491Z,15.00
2017-09-06T02:52:49.956Z,11.10
2017-09-06T02:55:16.436Z,15.33
2017-09-06T02:57:42.889Z,13.70
2017-09-06T03:00:09.342Z,12.63
2017-09-06T03:02:35.827Z,11.20
2017-09-06T03:05:02.288Z,11.43
2017-09-06T03:07:28.768Z,9.10
2017-09-06T03:09:55.256Z,13.73
2017-09-06T03:12:21.747Z,11.20
2017-09-06T03:14:48.219Z,11.07
2017-09-06T03:17:14.680Z,10.20
2017-09-06T03:19:41.135Z,11.50
2017-09-06T03:22:07.604Z,11.27
2017-09-06T03:24:34.068Z,10.40
2017-09-06T03:27:00.503Z,10.20
2017-09-06T03:29:26.975Z,22.27
2017-09-06T03:31:53.441Z,17.70
2017-09-06T03:34:19.925Z,12.07
2017-09-06T03:36:46.389Z,17.30
2017-09-06T03:39:12.869Z,15.73
2017-09-06T03:41:39.351Z,16.43
2017-09-06T03:44:05.798Z,9.23
2017-09-06T03:46:32.279Z,11.17
2017-09-06T03:48:58.764Z,10.10
2017-09-06T03:51:25.216Z,11.90
2017-09-06T03:53:51.680Z,12.43
2017-09-06T03:56:18.154Z,11.73
2017-09-06T03:58:44.623Z,14.17
2017-09-06T04:01:11.089Z,14.87
2017-09-06T04:03:37.561Z,12.80
2017-09-06T04:06:04.056Z,11.10
2017-09-06T04:08:30.544Z,11.70
2017-09-06T04:10:57.018Z,10.43
2017-09-06T04:13:23.517Z,11.60
2017-09-06T04:15:49.968Z,12.80
2017-09-06T04:18:16.411Z,19.40
2017-09-06T04:20:42.882Z,12.57
2017-09-06T04:23:09.368Z,13.90
2017-09-06T04:25:35.867Z,16.30
2017-09-06T04:28:02.364Z,14.33
2017-09-06T04:30:28.829Z,16.30
2017-09-06T04:32:55.291Z,15.27
2017-09-06T04:35:21.778Z,14.97
2017-09-06T04:37:48.244Z,14.33
2017-09-06T04:40:14.747Z,12.30
2017-09-06T04:42:41.227Z,13.03
2017-09-06T04:45:07.711Z,11.13
2017-09-06T04:47:34.399Z,13.70
2017-09-06T04:50:01.044Z,17.77
2017-09-06T04:52:27.537Z,13.67
2017-09-06T04:54:54.796Z,11.90
2017-09-06T04:57:21.275Z,18.90
2017-09-06T04:59:47.788Z,11.53
2017-09-06T05:02:14.237Z,14.00
2017-09-06T05:04:41.212Z,12.77
2017-09-06T05:07:07.691Z,13.20
2017-09-06T05:09:34.127Z,13.67
2017-09-06T05:12:00.588Z,12.80
2017-09-06T05:14:27.049Z,14.80
2017-09-06T05:16:53.543Z,17.37
2017-09-06T05:19:19.993Z,14.30
2017-09-06T05:21:46.464Z,23.43
2017-09-06T05:24:12.928Z,19.60
2017-09-06T05:26:39.371Z,22.37
2017-09-06T05:29:05.857Z,15.50
2017-09-06T05:31:32.317Z,15.60
2017-09-06T05:33:58.809Z,14.17
2017-09-06T05:36:26.013Z,14.90
2017-09-06T05:38:52.502Z,16.10
2017-09-06T05:41:18.965Z,18.20
2017-09-06T05:43:45.460Z,34.23
2017-09-06T05:46:11.927Z,24.20
2017-09-06T05:48:38.564Z,19.63
2017-09-06T05:51:05.072Z,16.80
2017-09-06T05:53:31.544Z,15.87
2017-09-06T05:55:58.007Z,16.33
2017-09-06T05:58:24.477Z,16.83
2017-09-06T06:00:51.010Z,22.17
2017-09-06T06:03:17.492Z,17.67
2017-09-06T06:05:43.989Z,15.30
2017-09-06T06:08:10.470Z,14.70
2017-09-06T06:10:36.933Z,14.50
2017-09-06T06:13:03.413Z,14.40
2017-09-06T06:15:29.892Z,14.90
2017-09-06T06:17:56.357Z,23.20
2017-09-06T06:20:22.904Z,14.03
2017-09-06T06:22:49.364Z,16.03
2017-09-06T06:25:15.838Z,16.17
2017-09-06T06:27:42.311Z,11.57
2017-09-06T06:30:08.794Z,15.50
2017-09-06T06:32:35.256Z,13.03
2017-09-06T06:35:01.708Z,13.10
2017-09-06T06:37:28.213Z,10.00
2017-09-06T06:39:55.368Z,13.73
2017-09-06T06:42:21.829Z,12.30
2017-09-06T06:44:48.671Z,15.30
2017-09-06T06:47:15.204Z,15.97
2017-09-06T06:49:41.688Z,13.00
2017-09-06T06:52:08.133Z,11.57
2017-09-06T06:54:34.598Z,10.07
2017-09-06T06:57:01.066Z,10.27
2017-09-06T06:59:27.526Z,10.57
2017-09-06T07:01:53.998Z,7.00
2017-09-06T07:04:20.492Z,8.93
2017-09-06T07:06:46.959Z,9.77
2017-09-06T07:09:13.415Z,12.00
2017-09-06T07:11:39.880Z,10.47
2017-09-06T07:14:06.367Z,13.47
2017-09-06T07:16:32.839Z,9.20
2017-09-06T07:18:59.311Z,12.73
2017-09-06T07:21:26.189Z,10.63
2017-09-06T07:23:52.669Z,10.07
2017-09-06T07:26:19.133Z,9.77
2017-09-06T07:28:45.594Z,9.23
2017-09-06T07:31:12.105Z,10.03
2017-09-06T07:33:38.590Z,10.63
2017-09-06T07:36:05.031Z,10.10
2017-09-06T07:38:31.484Z,15.87
2017-09-06T07:40:58.033Z,11.27
2017-09-06T07:43:24.546Z,10.50
2017-09-06T07:45:51.017Z,12.50
2017-09-06T07:48:17.521Z,10.63
2017-09-06T07:50:43.964Z,9.00
2017-09-06T07:53:10.477Z,9.17
2017-09-06T07:55:36.967Z,9.17
2017-09-06T07:58:03.485Z,11.83
2017-09-06T08:00:29.960Z,14.13
2017-09-06T08:02:56.433Z,12.90
2017-09-06T08:05:22.934Z,6.83
2017-09-06T08:07:55.568Z,6.80
2017-09-06T08:10:21.999Z,6.07
2017-09-06T08:12:48.482Z,5.23
2017-09-06T08:15:14.981Z,8.30
2017-09-06T08:17:41.423Z,5.70
2017-09-06T08:20:07.938Z,11.73
2017-09-06T08:22:34.449Z,4.83
2017-09-06T08:25:01.098Z,6.23
2017-09-06T08:27:27.566Z,8.47
2017-09-06T08:29:54.047Z,5.13
2017-09-06T08:32:20.522Z,4.87
2017-09-06T08:34:46.988Z,5.67
2017-09-06T08:37:13.498Z,11.90
2017-09-06T08:39:40.004Z,5.40
2017-09-06T08:42:06.514Z,7.47
2017-09-06T08:44:33.021Z,6.67
2017-09-06T08:46:59.525Z,9.00
2017-09-06T08:49:25.996Z,8.80
2017-09-06T08:51:52.446Z,6.40
2017-09-06T08:54:18.906Z,6.60
2017-09-06T08:56:45.412Z,4.30
2017-09-06T08:59:11.891Z,6.53
2017-09-06T09:01:38.381Z,4.30
2017-09-06T09:04:04.863Z,6.60
2017-09-06T09:06:31.365Z,5.33
2017-09-06T09:08:57.832Z,6.83
2017-09-06T09:11:24.337Z,5.47
2017-09-06T09:13:50.791Z,7.97
2017-09-06T09:16:17.255Z,7.07
2017-09-06T09:18:43.718Z,5.30
2017-09-06T09:21:10.169Z,4.40
2017-09-06T09:23:36.668Z,4.00
2017-09-06T09:26:03.233Z,5.30
2017-09-06T09:28:29.778Z,6.50
2017-09-06T09:30:56.248Z,4.70
2017-09-06T09:33:22.817Z,6.60
2017-09-06T09:35:49.290Z,6.67
2017-09-06T09:38:15.750Z,5.40
2017-09-06T09:40:42.250Z,4.80
2017-09-06T09:43:08.776Z,4.37
2017-09-06T09:45:35.249Z,4.63
2017-09-06T09:48:01.759Z,5.20
2017-09-06T09:50:28.258Z,4.63
2017-09-06T09:52:54.751Z,3.07
2017-09-06T09:55:21.209Z,4.90
2017-09-06T09:57:47.669Z,15.20
2017-09-06T10:00:14.182Z,5.33
2017-09-06T10:02:40.659Z,5.10
2017-09-06T10:05:07.158Z,3.00
2017-09-06T10:07:33.646Z,2.83
2017-09-06T10:10:00.104Z,2.63
2017-09-06T10:12:26.571Z,4.33
2017-09-06T10:14:53.036Z,3.80
2017-09-06T10:17:19.531Z,3.43
2017-09-06T10:19:45.980Z,3.67
2017-09-06T10:22:12.487Z,3.27
2017-09-06T10:24:38.968Z,2.23
2017-09-06T10:27:05.425Z,3.33
2017-09-06T10:29:31.887Z,2.03
2017-09-06T10:31:58.391Z,2.57
2017-09-06T10:34:24.856Z,2.23
2017-09-06T10:36:51.368Z,2.23
2017-09-06T10:39:17.832Z,2.87
2017-09-06T10:41:44.299Z,2.20
2017-09-06T10:44:10.766Z,2.83
2017-09-06T10:46:37.231Z,3.23
2017-09-06T10:49:03.691Z,3.70
2017-09-06T10:51:30.155Z,3.47
2017-09-06T10:53:56.619Z,3.33
2017-09-06T10:56:23.058Z,2.70
2017-09-06T10:58:49.524Z,2.50
2017-09-06T11:01:16.001Z,2.90
2017-09-06T11:03:42.453Z,7.40
2017-09-06T11:06:08.925Z,3.60
2017-09-06T11:08:35.401Z,2.93
2017-09-06T11:11:01.856Z,2.30
2017-09-06T11:13:29.067Z,2.63
2017-09-06T11:15:55.503Z,4.90
2017-09-06T11:18:21.975Z,2.87
2017-09-06T11:20:48.453Z,2.80
2017-09-06T11:23:14.893Z,2.90
2017-09-06T11:25:41.379Z,3.60
2017-09-06T11:28:07.840Z,4.07
2017-09-06T11:30:34.327Z,4.03
2017-09-06T11:33:00.813Z,4.97
2017-09-06T11:35:27.334Z,2.60
2017-09-06T11:37:53.797Z,4.17
2017-09-06T11:40:20.283Z,3.60
2017-09-06T11:42:46.810Z,5.23
2017-09-06T11:45:13.284Z,3.57
2017-09-06T11:47:39.782Z,3.80
2017-09-06T11:50:06.252Z,3.73
2017-09-06T11:52:32.752Z,5.93
2017-09-06T11:54:59.220Z,3.60
2017-09-06T11:57:25.666Z,3.40
2017-09-06T11:59:52.141Z,3.70
2017-09-06T12:02:18.637Z,3.30
2017-09-06T12:04:45.135Z,4.53
2017-09-06T12:07:11.617Z,4.00
2017-09-06T12:09:38.125Z,3.50
2017-09-06T12:12:04.654Z,2.93
2017-09-06T12:14:31.303Z,4.57
2017-09-06T12:16:57.752Z,3.63
2017-09-06T12:19:24.250Z,3.33
2017-09-06T12:21:50.714Z,3.50
2017-09-06T12:24:17.172Z,5.63
2017-09-06T12:26:43.614Z,3.43
2017-09-06T12:29:10.478Z,3.00
2017-09-06T12:31:36.935Z,9.17
2017-09-06T12:34:03.423Z,5.00
2017-09-06T12:36:29.877Z,3.10
2017-09-06T12:38:56.342Z,3.50
2017-09-06T12:41:22.812Z,2.83
2017-09-06T12:43:49.351Z,2.83
2017-09-06T12:46:15.807Z,4.03
2017-09-06T12:48:42.294Z,2.67
2017-09-06T12:51:09.789Z,3.63
2017-09-06T12:53:36.243Z,2.00
2017-09-06T12:56:02.728Z,2.20
2017-09-06T12:58:29.179Z,3.67
2017-09-06T13:00:55.722Z,7.70
2017-09-06T13:03:22.232Z,3.97
2017-09-06T13:05:49.071Z,7.07
2017-09-06T13:08:15.555Z,13.97
2017-09-06T13:10:42.186Z,11.03
2017-09-06T13:13:08.680Z,3.27
2017-09-06T13:15:35.160Z,6.33
2017-09-06T13:18:01.622Z,7.30
2017-09-06T13:20:29.013Z,5.23
2017-09-06T13:22:55.495Z,4.37
2017-09-06T13:25:21.969Z,5.27
2017-09-06T13:27:48.453Z,3.57
2017-09-06T13:30:14.906Z,6.37
2017-09-06T13:32:41.689Z,4.90
2017-09-06T13:35:08.172Z,4.60
2017-09-06T13:37:34.654Z,25.17
2017-09-06T13:40:01.173Z,27.53
2017-09-06T13:42:27.661Z,39.93
2017-09-06T13:44:54.281Z,19.73
2017-09-06T13:47:21.340Z,22.57
2017-09-06T13:49:47.876Z,28.87
2017-09-06T13:52:14.344Z,25.37
2017-09-06T13:54:40.804Z,36.53
2017-09-06T13:57:07.282Z,14.40
2017-09-06T13:59:33.777Z,9.57
2017-09-06T14:02:00.240Z,9.67
2017-09-06T14:04:26.698Z,12.30
2017-09-06T14:06:53.186Z,5.80
2017-09-06T14:09:19.664Z,5.80
2017-09-06T14:11:46.296Z,4.47
2017-09-06T14:14:12.784Z,4.77
2017-09-06T14:16:39.262Z,2.83
2017-09-06T14:19:05.693Z,2.73
2017-09-06T14:21:32.168Z,2.57
2017-09-06T14:23:58.653Z,2.60
2017-09-06T14:26:25.138Z,2.90
2017-09-06T14:28:51.613Z,4.67
2017-09-06T14:31:18.057Z,2.97
2017-09-06T14:33:44.519Z,1.53
2017-09-06T14:36:10.990Z,1.73
2017-09-06T14:38:37.433Z,1.63
2017-09-06T14:41:03.898Z,1.50
2017-09-06T14:43:30.348Z,1.60
2017-09-06T14:45:57.565Z,1.57
2017-09-06T14:48:24.126Z,2.90
2017-09-06T14:50:50.596Z,3.50
2017-09-06T14:53:17.033Z,3.27
2017-09-06T14:55:43.481Z,1.80
2017-09-06T14:58:09.936Z,2.20
2017-09-06T15:00:36.384Z,2.77
2017-09-06T15:03:03.059Z,3.03
2017-09-06T15:05:29.519Z,1.80
2017-09-06T15:07:55.987Z,4.10
2017-09-06T15:10:22.435Z,1.70
2017-09-06T15:12:48.953Z,1.60
2017-09-06T15:15:15.398Z,1.83
2017-09-06T15:17:41.848Z,3.50
2017-09-06T15:20:08.314Z,1.67
2017-09-06T15:22:34.781Z,1.83
2017-09-06T15:25:01.292Z,1.87
2017-09-06T15:27:27.767Z,2.40
2017-09-06T15:29:54.221Z,2.17
2017-09-06T15:32:20.702Z,13.03
2017-09-06T15:34:47.203Z,2.03
2017-09-06T15:37:13.660Z,1.80
2017-09-06T15:39:40.126Z,1.83
2017-09-06T15:42:06.565Z,1.80
2017-09-06T15:44:33.038Z,2.23
2017-09-06T15:46:59.527Z,1.90
2017-09-06T15:49:26.012Z,3.20
2017-09-06T15:51:52.518Z,3.37
2017-09-06T15:54:19.018Z,1.90
2017-09-06T15:56:45.585Z,2.73
2017-09-06T15:59:12.066Z,1.60
2017-09-06T16:01:38.565Z,2.10
2017-09-06T16:04:05.085Z,2.47
2017-09-06T16:06:31.637Z,1.50
2017-09-06T16:08:58.130Z,2.50
2017-09-06T16:11:24.634Z,2.17
2017-09-06T16:13:51.135Z,1.70
2017-09-06T16:16:17.681Z,1.83
2017-09-06T16:18:44.188Z,3.43
2017-09-06T16:21:10.693Z,3.67
2017-09-06T16:23:37.216Z,2.10
2017-09-06T16:26:03.741Z,2.60
2017-09-06T16:28:30.246Z,2.47
2017-09-06T16:30:56.765Z,1.70
2017-09-06T16:33:24.032Z,1.67
2017-09-06T16:35:50.545Z,2.17
2017-09-06T16:38:17.053Z,1.67
2017-09-06T16:40:43.580Z,1.60
2017-09-06T16:43:10.094Z,3.47
2017-09-06T16:45:37.171Z,5.50
2017-09-06T16:48:03.668Z,2.50
2017-09-06T16:50:30.178Z,2.27
2017-09-06T16:52:56.646Z,2.33
2017-09-06T16:55:23.106Z,2.40
2017-09-06T16:57:49.561Z,2.30
2017-09-06T17:00:16.043Z,2.00
2017-09-06T17:02:42.512Z,1.97
2017-09-06T17:05:08.961Z,6.43
2017-09-06T17:07:35.432Z,1.50
2017-09-06T17:10:01.922Z,1.93
2017-09-06T17:12:28.386Z,4.10
2017-09-06T17:14:54.896Z,1.57
2017-09-06T17:17:21.379Z,1.50
2017-09-06T17:19:47.864Z,1.43
2017-09-06T17:22:14.415Z,3.93
2017-09-06T17:24:40.909Z,7.93
2017-09-06T17:27:07.379Z,2.57
2017-09-06T17:29:33.908Z,3.27
2017-09-06T17:32:00.401Z,1.70
2017-09-06T17:34:26.911Z,2.13
2017-09-06T17:36:53.352Z,3.00
2017-09-06T17:39:19.839Z,1.93
2017-09-06T17:41:46.316Z,3.33
2017-09-06T17:44:12.820Z,1.67
2017-09-06T17:46:39.312Z,1.60
2017-09-06T17:49:05.776Z,3.37
2017-09-06T17:51:32.209Z,2.37
2017-09-06T17:53:58.661Z,2.30
2017-09-06T17:56:25.126Z,1.70
2017-09-06T17:58:51.576Z,1.40
2017-09-06T18:01:18.029Z,2.03
2017-09-06T18:03:44.480Z,1.73
2017-09-06T18:06:10.955Z,3.80
2017-09-06T18:08:37.422Z,1.60
2017-09-06T18:11:03.895Z,4.33
2017-09-06T18:13:30.345Z,2.77
2017-09-06T18:15:56.787Z,2.50
2017-09-06T18:18:23.992Z,4.43
2017-09-06T18:20:50.450Z,1.90
2017-09-06T18:23:16.933Z,1.70
2017-09-06T18:25:43.457Z,3.53
2017-09-06T18:28:09.932Z,5.73
2017-09-06T18:30:36.415Z,2.40
2017-09-06T18:33:03.738Z,1.87
2017-09-06T18:35:30.203Z,1.80
2017-09-06T18:37:56.655Z,6.17
2017-09-06T18:40:23.133Z,2.33
2017-09-06T18:42:49.576Z,4.07
2017-09-06T18:45:16.064Z,1.77
2017-09-06T18:47:42.533Z,1.90
2017-09-06T18:50:09.027Z,3.37
2017-09-06T18:52:35.507Z,2.00
2017-09-06T18:55:01.956Z,1.77
2017-09-06T18:57:28.447Z,3.50
2017-09-06T18:59:54.919Z,2.07
2017-09-06T19:02:21.344Z,9.17
2017-09-06T19:04:47.795Z,6.83
2017-09-06T19:07:14.268Z,11.73
2017-09-06T19:09:40.741Z,2.67
2017-09-06T19:12:07.216Z,8.67
2017-09-06T19:14:33.677Z,24.37
2017-09-06T19:17:00.146Z,65.70
2017-09-06T19:19:27.000Z,43.33
2017-09-06T19:21:53.462Z,17.57
2017-09-06T19:24:19.913Z,4.30
2017-09-06T19:26:46.375Z,2.77
2017-09-06T19:29:12.887Z,2.23
2017-09-06T19:31:39.395Z,3.10
2017-09-06T19:34:07.944Z,3.50
2017-09-06T19:36:34.455Z,3.07
2017-09-06T19:39:01.014Z,2.20
2017-09-06T19:41:27.472Z,3.17
2017-09-06T19:43:53.930Z,2.50
2017-09-06T19:46:20.395Z,4.60
2017-09-06T19:48:46.882Z,2.90
2017-09-06T19:51:13.402Z,2.80
2017-09-06T19:53:39.853Z,3.37
2017-09-06T19:56:06.349Z,3.67
2017-09-06T19:58:32.808Z,3.47
2017-09-06T20:00:59.298Z,3.00
2017-09-06T20:03:25.760Z,2.13
2017-09-06T20:05:52.216Z,2.10
2017-09-06T20:08:18.724Z,2.43
2017-09-06T20:10:45.188Z,2.80
2017-09-06T20:13:11.644Z,2.20
2017-09-06T20:15:38.109Z,3.87
2017-09-06T20:18:04.620Z,1.90
2017-09-06T20:20:31.064Z,2.40
2017-09-06T20:22:57.523Z,3.77
2017-09-06T20:25:23.980Z,2.50
2017-09-06T20:27:50.438Z,2.43
2017-09-06T20:30:16.897Z,3.10
2017-09-06T20:32:43.372Z,9.80
2017-09-06T20:35:09.841Z,3.60
2017-09-06T20:37:36.465Z,4.57
2017-09-06T20:40:02.978Z,2.07
2017-09-06T20:42:29.420Z,2.60
2017-09-06T20:44:55.939Z,2.73
2017-09-06T20:47:22.407Z,2.70
2017-09-06T20:49:48.876Z,3.73
2017-09-06T20:52:15.426Z,2.57
2017-09-06T20:54:41.904Z,5.27
2017-09-06T20:57:08.339Z,2.00
2017-09-06T20:59:35.513Z,6.40
2017-09-06T21:02:02.006Z,1.80
2017-09-06T21:04:28.463Z,3.40
2017-09-06T21:06:54.943Z,2.00
2017-09-06T21:09:21.435Z,5.43
2017-09-06T21:11:47.905Z,1.90
2017-09-06T21:14:14.398Z,2.07
2017-09-06T21:16:40.840Z,3.00
2017-09-06T21:19:07.287Z,3.33
2017-09-06T21:21:34.127Z,4.67
2017-09-06T21:24:00.634Z,5.90
2017-09-06T21:26:27.111Z,3.20
2017-09-06T21:28:53.573Z,2.40
2017-09-06T21:31:20.085Z,5.40
2017-09-06T21:33:46.547Z,4.70
2017-09-06T21:36:13.443Z,3.80
2017-09-06T21:38:39.923Z,4.00
2017-09-06T21:41:06.383Z,7.93
2017-09-06T21:43:32.859Z,3.23
2017-09-06T21:45:59.298Z,2.10
2017-09-06T21:48:25.793Z,4.50
2017-09-06T21:50:52.247Z,9.23
2017-09-06T21:53:18.764Z,5.23
2017-09-06T21:55:45.299Z,2.33
2017-09-06T21:58:11.750Z,3.87
2017-09-06T22:00:38.209Z,3.27
2017-09-06T22:03:04.660Z,4.73
2017-09-06T22:05:31.137Z,4.10
2017-09-06T22:07:57.600Z,3.63
2017-09-06T22:10:24.077Z,7.63
2017-09-06T22:12:50.545Z,2.87
2017-09-06T22:15:17.048Z,4.23
2017-09-06T22:17:43.558Z,6.07
2017-09-06T22:20:10.044Z,7.53
2017-09-06T22:22:36.546Z,4.37
2017-09-06T22:25:03.001Z,6.80
2017-09-06T22:27:29.469Z,7.40
2017-09-06T22:29:55.951Z,3.30
2017-09-06T22:32:22.408Z,7.17
2017-09-06T22:34:48.869Z,3.23
2017-09-06T22:37:15.350Z,5.33
2017-09-06T22:39:41.805Z,3.57
2017-09-06T22:42:08.287Z,8.57
2017-09-06T22:44:34.739Z,5.43
2017-09-06T22:47:01.204Z,5.37
2017-09-06T22:49:27.652Z,3.33
2017-09-06T22:51:54.115Z,6.37
2017-09-06T22:54:20.583Z,3.20
2017-09-06T22:56:47.076Z,5.13
2017-09-06T22:59:13.555Z,7.17
2017-09-06T23:01:40.020Z,5.43
2017-09-06T23:04:06.475Z,8.50
2017-09-06T23:06:32.976Z,5.50
2017-09-06T23:08:59.433Z,11.93
2017-09-06T23:11:25.997Z,6.97
2017-09-06T23:13:52.477Z,6.93
2017-09-06T23:16:18.924Z,3.13
2017-09-06T23:18:45.377Z,7.50
2017-09-06T23:21:11.851Z,11.23
2017-09-06T23:23:38.309Z,5.03
2017-09-06T23:26:04.813Z,5.80
2017-09-06T23:28:31.260Z,7.90
2017-09-06T23:30:57.712Z,4.63
2017-09-06T23:33:24.186Z,5.17
2017-09-06T23:35:50.636Z,8.00
2017-09-06T23:38:17.080Z,5.63
2017-09-06T23:40:43.539Z,5.63
2017-09-06T23:43:10.040Z,4.73
2017-09-06T23:45:36.492Z,4.03
2017-09-06T23:48:02.978Z,5.80
2017-09-06T23:50:29.474Z,5.17
2017-09-06T23:52:55.925Z,5.87
2017-09-06T23:55:22.402Z,4.23
2017-09-06T23:57:48.871Z,10.40
